createdAt,value
2019-05-23T00:00:48.219Z,0.00
2019-05-23T00:01:48.209Z,0.00
2019-05-23T00:02:48.210Z,0.00
2019-05-23T00:03:48.189Z,0.00
2019-05-23T00:04:48.180Z,0.00
2019-05-23T00:05:48.165Z,0.00
2019-05-23T00:06:48.169Z,0.00
2019-05-23T00:07:48.145Z,0.00
2019-05-23T00:08:48.144Z,0.00
2019-05-23T00:09:48.121Z,0.00
2019-05-23T00:10:48.113Z,0.00
2019-05-23T00:11:48.099Z,0.00
2019-05-23T00:12:48.097Z,0.00
2019-05-23T00:13:48.076Z,0.00
2019-05-23T00:14:48.081Z,0.00
2019-05-23T00:15:48.058Z,0.00
2019-05-23T00:16:48.043Z,0.00
2019-05-23T00:17:48.031Z,0.00
2019-05-23T00:18:48.021Z,0.00
2019-05-23T00:19:48.013Z,0.00
2019-05-23T00:20:48.020Z,0.00
2019-05-23T00:21:47.991Z,0.00
2019-05-23T00:22:47.978Z,0.00
2019-05-23T00:23:47.967Z,0.00
2019-05-23T00:24:47.957Z,0.00
2019-05-23T00:25:47.951Z,0.00
2019-05-23T00:26:47.974Z,0.00
2019-05-23T00:27:47.923Z,0.00
2019-05-23T00:28:47.912Z,0.00
2019-05-23T00:29:47.902Z,0.00
2019-05-23T00:30:47.892Z,0.00
2019-05-23T00:31:47.884Z,0.00
2019-05-23T00:32:47.888Z,0.00
2019-05-23T00:33:47.859Z,0.00
2019-05-23T00:34:47.852Z,0.00
2019-05-23T00:35:47.843Z,0.00
2019-05-23T00:36:47.828Z,0.00
2019-05-23T00:37:47.816Z,0.00
2019-05-23T00:38:47.815Z,0.00
2019-05-23T00:39:47.794Z,0.00
2019-05-23T00:40:47.784Z,0.00
2019-05-23T00:41:47.774Z,0.00
2019-05-23T00:42:47.821Z,0.00
2019-05-23T00:43:47.753Z,0.00
2019-05-23T00:44:47.754Z,0.00
2019-05-23T00:45:47.729Z,0.00
2019-05-23T00:46:47.720Z,0.00
2019-05-23T00:47:47.709Z,0.00
2019-05-23T00:48:47.698Z,0.00
2019-05-23T00:49:47.692Z,0.00
2019-05-23T00:50:47.692Z,0.00
2019-05-23T00:51:47.667Z,0.00
2019-05-23T00:52:47.660Z,0.00
2019-05-23T00:53:47.645Z,0.00
2019-05-23T00:54:47.635Z,0.00
2019-05-23T00:55:47.624Z,0.00
2019-05-23T00:56:47.627Z,0.00
2019-05-23T00:57:47.602Z,0.00
2019-05-23T00:58:47.594Z,0.00
2019-05-23T00:59:47.581Z,0.00
2019-05-23T01:00:47.571Z,0.00
2019-05-23T01:01:47.566Z,0.00
2019-05-23T01:02:47.563Z,0.00
2019-05-23T01:03:47.541Z,0.00
2019-05-23T01:04:47.527Z,0.00
2019-05-23T01:05:47.516Z,0.00
2019-05-23T01:06:47.506Z,0.00
2019-05-23T01:07:47.496Z,0.00
2019-05-23T01:08:47.498Z,0.00
2019-05-23T01:09:47.476Z,0.00
2019-05-23T01:10:47.463Z,0.00
2019-05-23T01:11:47.454Z,0.00
2019-05-23T01:12:47.444Z,0.00
2019-05-23T01:13:47.428Z,0.00
2019-05-23T01:14:47.429Z,0.00
2019-05-23T01:15:47.411Z,0.00
2019-05-23T01:16:47.401Z,0.00
2019-05-23T01:17:47.388Z,0.00
2019-05-23T01:18:47.374Z,0.00
2019-05-23T01:19:47.366Z,0.00
2019-05-23T01:20:47.362Z,0.00
2019-05-23T01:21:47.342Z,0.00
2019-05-23T01:22:47.331Z,0.00
2019-05-23T01:23:47.323Z,0.00
2019-05-23T01:24:47.314Z,0.00
2019-05-23T01:25:47.301Z,0.00
2019-05-23T01:26:47.297Z,0.00
2019-05-23T01:27:47.277Z,0.00
2019-05-23T01:28:47.268Z,0.00
2019-05-23T01:29:49.710Z,0.00
2019-05-23T01:30:47.252Z,0.00
2019-05-23T01:31:47.232Z,0.00
2019-05-23T01:32:47.233Z,0.00
2019-05-23T01:33:47.211Z,0.00
2019-05-23T01:34:47.202Z,0.00
2019-05-23T01:35:47.188Z,0.00
2019-05-23T01:36:47.178Z,0.00
2019-05-23T01:37:47.174Z,0.00
2019-05-23T01:38:47.166Z,0.00
2019-05-23T01:39:47.145Z,0.00
2019-05-23T01:40:47.137Z,0.00
2019-05-23T01:41:47.122Z,0.00
2019-05-23T01:42:47.112Z,0.00
2019-05-23T01:43:47.102Z,0.00
2019-05-23T01:44:47.105Z,0.00
2019-05-23T01:45:47.080Z,0.00
2019-05-23T01:46:47.070Z,0.00
2019-05-23T01:47:47.057Z,0.00
2019-05-23T01:48:47.046Z,0.00
2019-05-23T01:49:47.037Z,0.00
2019-05-23T01:50:47.035Z,0.00
2019-05-23T01:51:47.015Z,0.00
2019-05-23T01:52:47.026Z,0.00
2019-05-23T01:53:46.993Z,0.00
2019-05-23T01:54:46.982Z,0.00
2019-05-23T01:55:46.975Z,0.00
2019-05-23T01:56:46.979Z,0.00
2019-05-23T01:57:46.950Z,0.00
2019-05-23T01:58:46.939Z,0.00
2019-05-23T01:59:46.928Z,0.00
2019-05-23T02:00:46.939Z,0.00
2019-05-23T02:01:46.909Z,0.00
2019-05-23T02:02:46.914Z,0.00
2019-05-23T02:03:46.884Z,0.00
2019-05-23T02:04:46.876Z,0.00
2019-05-23T02:05:46.863Z,0.00
2019-05-23T02:06:46.851Z,0.00
2019-05-23T02:07:46.841Z,0.00
2019-05-23T02:08:46.842Z,0.00
2019-05-23T02:09:46.825Z,0.00
2019-05-23T02:10:46.810Z,0.00
2019-05-23T02:11:46.797Z,0.00
2019-05-23T02:12:46.786Z,0.00
2019-05-23T02:13:46.779Z,0.00
2019-05-23T02:14:46.785Z,0.00
2019-05-23T02:15:46.757Z,0.00
2019-05-23T02:16:46.745Z,0.00
2019-05-23T02:17:46.737Z,0.00
2019-05-23T02:18:46.741Z,0.00
2019-05-23T02:19:46.719Z,0.00
2019-05-23T02:20:46.715Z,0.00
2019-05-23T02:21:46.694Z,0.00
2019-05-23T02:22:46.681Z,0.00
2019-05-23T02:23:46.672Z,0.00
2019-05-23T02:24:46.672Z,0.00
2019-05-23T02:25:46.651Z,0.00
2019-05-23T02:26:46.648Z,0.00
2019-05-23T02:27:46.632Z,0.00
2019-05-23T02:28:46.616Z,0.00
2019-05-23T02:29:46.607Z,0.00
2019-05-23T02:30:46.596Z,0.00
2019-05-23T02:31:46.585Z,0.00
2019-05-23T02:32:46.592Z,0.00
2019-05-23T02:33:46.563Z,0.00
2019-05-23T02:34:46.553Z,0.00
2019-05-23T02:35:46.543Z,0.00
2019-05-23T02:36:46.533Z,0.00
2019-05-23T02:37:46.525Z,0.00
2019-05-23T02:38:46.522Z,0.00
2019-05-23T02:39:46.505Z,0.00
2019-05-23T02:40:46.492Z,0.00
2019-05-23T02:41:46.479Z,0.00
2019-05-23T02:42:46.469Z,0.00
2019-05-23T02:43:46.457Z,0.00
2019-05-23T02:44:46.459Z,0.00
2019-05-23T02:45:46.435Z,0.00
2019-05-23T02:46:46.424Z,0.00
2019-05-23T02:47:46.416Z,0.00
2019-05-23T02:48:46.404Z,0.00
2019-05-23T02:49:46.393Z,0.00
2019-05-23T02:50:46.395Z,0.00
2019-05-23T02:51:46.372Z,0.00
2019-05-23T02:52:46.362Z,0.00
2019-05-23T02:53:46.350Z,0.00
2019-05-23T02:54:46.341Z,0.00
2019-05-23T02:55:46.328Z,0.00
2019-05-23T02:56:46.351Z,0.00
2019-05-23T02:57:46.307Z,0.00
2019-05-23T02:58:46.295Z,0.00
2019-05-23T02:59:46.285Z,0.00
2019-05-23T03:00:54.306Z,0.00
2019-05-23T03:01:47.273Z,0.00
2019-05-23T03:02:46.254Z,0.00
2019-05-23T03:03:46.241Z,0.00
2019-05-23T03:04:46.232Z,0.00
2019-05-23T03:05:46.220Z,0.00
2019-05-23T03:06:46.212Z,0.00
2019-05-23T03:07:46.214Z,0.00
2019-05-23T03:08:46.187Z,0.00
2019-05-23T03:09:46.181Z,0.00
2019-05-23T03:10:46.166Z,0.00
2019-05-23T03:11:46.156Z,0.00
2019-05-23T03:12:46.146Z,0.00
2019-05-23T03:13:46.151Z,0.00
2019-05-23T03:14:46.150Z,0.00
2019-05-23T03:15:46.115Z,0.00
2019-05-23T03:16:46.102Z,0.00
2019-05-23T03:17:46.095Z,5.62
2019-05-23T03:18:46.078Z,5.62
2019-05-23T03:19:46.090Z,5.62
2019-05-23T03:20:46.057Z,5.62
2019-05-23T03:21:46.047Z,5.62
2019-05-23T03:22:46.172Z,5.62
2019-05-23T03:23:46.024Z,5.62
2019-05-23T03:24:46.014Z,5.62
2019-05-23T03:25:46.012Z,11.25
2019-05-23T03:26:46.007Z,11.25
2019-05-23T03:27:45.983Z,11.25
2019-05-23T03:28:45.983Z,11.25
2019-05-23T03:29:45.959Z,16.88
2019-05-23T03:30:45.951Z,16.88
2019-05-23T03:31:45.953Z,16.88
2019-05-23T03:32:45.930Z,16.88
2019-05-23T03:33:45.918Z,22.50
2019-05-23T03:34:45.908Z,22.50
2019-05-23T03:35:45.895Z,28.12
2019-05-23T03:36:45.883Z,28.12
2019-05-23T03:37:45.931Z,28.12
2019-05-23T03:38:45.861Z,33.75
2019-05-23T03:39:45.851Z,33.75
2019-05-23T03:40:45.839Z,39.38
2019-05-23T03:41:45.830Z,39.38
2019-05-23T03:42:45.823Z,45.00
2019-05-23T03:43:45.817Z,45.00
2019-05-23T03:44:45.797Z,50.62
2019-05-23T03:45:45.791Z,50.62
2019-05-23T03:46:45.773Z,50.62
2019-05-23T03:47:45.763Z,56.25
2019-05-23T03:48:45.753Z,56.25
2019-05-23T03:49:45.752Z,61.88
2019-05-23T03:50:45.729Z,61.88
2019-05-23T03:51:45.717Z,67.50
2019-05-23T03:52:45.719Z,67.50
2019-05-23T03:53:45.695Z,73.12
2019-05-23T03:54:45.686Z,73.12
2019-05-23T03:55:45.697Z,78.75
2019-05-23T03:56:45.670Z,84.38
2019-05-23T03:57:45.657Z,78.75
2019-05-23T03:58:45.650Z,78.75
2019-05-23T03:59:45.636Z,78.75
2019-05-23T04:00:45.634Z,84.38
2019-05-23T04:01:48.424Z,90.00
2019-05-23T04:02:45.600Z,95.62
2019-05-23T04:03:45.602Z,112.50
2019-05-23T04:04:45.581Z,118.12
2019-05-23T04:05:45.568Z,123.75
2019-05-23T04:06:45.559Z,123.75
2019-05-23T04:07:45.558Z,129.38
2019-05-23T04:08:45.537Z,123.75
2019-05-23T04:09:45.528Z,123.75
2019-05-23T04:10:45.516Z,118.12
2019-05-23T04:11:45.513Z,118.12
2019-05-23T04:12:45.497Z,101.25
2019-05-23T04:13:45.494Z,101.25
2019-05-23T04:14:45.474Z,106.88
2019-05-23T04:15:45.462Z,106.88
2019-05-23T04:16:45.453Z,112.50
2019-05-23T04:17:45.454Z,123.75
2019-05-23T04:18:45.430Z,135.00
2019-05-23T04:19:45.439Z,140.62
2019-05-23T04:20:45.410Z,135.00
2019-05-23T04:21:45.417Z,129.38
2019-05-23T04:22:45.386Z,135.00
2019-05-23T04:23:45.377Z,157.50
2019-05-23T04:24:45.363Z,180.00
2019-05-23T04:25:45.371Z,225.00
2019-05-23T04:26:45.341Z,286.88
2019-05-23T04:27:45.330Z,343.12
2019-05-23T04:28:45.320Z,354.38
2019-05-23T04:29:45.309Z,365.62
2019-05-23T04:30:45.302Z,376.88
2019-05-23T04:31:45.300Z,382.50
2019-05-23T04:32:45.276Z,427.50
2019-05-23T04:33:45.355Z,461.25
2019-05-23T04:34:45.256Z,393.75
2019-05-23T04:35:45.242Z,495.00
2019-05-23T04:36:45.232Z,658.12
2019-05-23T04:37:45.232Z,725.62
2019-05-23T04:38:45.210Z,815.62
2019-05-23T04:39:45.203Z,866.25
2019-05-23T04:40:45.190Z,928.12
2019-05-23T04:41:45.185Z,1012.50
2019-05-23T04:42:45.168Z,1113.75
2019-05-23T04:43:45.167Z,1119.38
2019-05-23T04:44:45.156Z,1080.00
2019-05-23T04:45:45.134Z,1096.88
2019-05-23T04:46:45.125Z,1113.75
2019-05-23T04:47:45.116Z,1102.50
2019-05-23T04:48:45.112Z,1102.50
2019-05-23T04:49:45.102Z,1012.50
2019-05-23T04:50:45.082Z,894.38
2019-05-23T04:51:45.069Z,843.75
2019-05-23T04:52:45.057Z,956.25
2019-05-23T04:53:45.053Z,1051.88
2019-05-23T04:54:45.038Z,967.50
2019-05-23T04:55:45.038Z,939.38
2019-05-23T04:56:45.023Z,928.12
2019-05-23T04:57:45.003Z,933.75
2019-05-23T04:58:44.999Z,928.12
2019-05-23T04:59:44.984Z,928.12
2019-05-23T05:00:44.979Z,905.62
2019-05-23T05:01:44.977Z,900.00
2019-05-23T05:02:44.949Z,978.75
2019-05-23T05:03:44.958Z,1023.75
2019-05-23T05:04:44.932Z,1035.00
2019-05-23T05:05:44.917Z,956.25
2019-05-23T05:06:44.908Z,973.12
2019-05-23T05:07:44.931Z,1006.88
2019-05-23T05:08:44.885Z,939.38
2019-05-23T05:09:44.875Z,916.88
2019-05-23T05:10:44.863Z,933.75
2019-05-23T05:11:44.853Z,945.00
2019-05-23T05:12:44.846Z,911.25
2019-05-23T05:13:44.841Z,883.12
2019-05-23T05:14:44.821Z,888.75
2019-05-23T05:15:44.809Z,916.88
2019-05-23T05:16:44.800Z,933.75
2019-05-23T05:17:44.785Z,922.50
2019-05-23T05:18:44.830Z,922.50
2019-05-23T05:19:44.774Z,860.62
2019-05-23T05:20:44.765Z,753.75
2019-05-23T05:21:44.742Z,641.25
2019-05-23T05:22:44.733Z,573.75
2019-05-23T05:23:44.726Z,545.62
2019-05-23T05:24:44.710Z,551.25
2019-05-23T05:25:44.709Z,551.25
2019-05-23T05:26:44.691Z,579.38
2019-05-23T05:27:44.679Z,579.38
2019-05-23T05:28:44.669Z,573.75
2019-05-23T05:29:44.659Z,579.38
2019-05-23T05:30:44.656Z,568.12
2019-05-23T05:31:44.644Z,573.75
2019-05-23T05:32:45.808Z,573.75
2019-05-23T05:33:44.613Z,579.38
2019-05-23T05:34:44.607Z,579.38
2019-05-23T05:35:44.591Z,579.38
2019-05-23T05:36:44.582Z,579.38
2019-05-23T05:37:44.586Z,579.38
2019-05-23T05:38:44.560Z,556.88
2019-05-23T05:39:44.550Z,540.00
2019-05-23T05:40:44.537Z,540.00
2019-05-23T05:41:44.525Z,534.38
2019-05-23T05:42:44.514Z,545.62
2019-05-23T05:43:44.521Z,545.62
2019-05-23T05:44:44.494Z,551.25
2019-05-23T05:45:44.486Z,562.50
2019-05-23T05:46:44.473Z,551.25
2019-05-23T05:47:44.469Z,585.00
2019-05-23T05:48:44.463Z,585.00
2019-05-23T05:49:44.456Z,590.62
2019-05-23T05:50:44.453Z,579.38
2019-05-23T05:51:44.418Z,590.62
2019-05-23T05:52:44.408Z,596.25
2019-05-23T05:53:44.420Z,624.38
2019-05-23T05:54:44.385Z,646.88
2019-05-23T05:55:44.385Z,736.88
2019-05-23T05:56:44.363Z,860.62
2019-05-23T05:57:44.358Z,1074.38
2019-05-23T05:58:44.345Z,1327.50
2019-05-23T05:59:44.335Z,1383.75
2019-05-23T06:00:44.336Z,1479.38
2019-05-23T06:01:44.320Z,1535.62
2019-05-23T06:03:00.866Z,1597.50
2019-05-23T06:03:45.287Z,1636.88
2019-05-23T06:04:44.277Z,1687.50
2019-05-23T06:05:44.273Z,1940.62
2019-05-23T06:06:44.257Z,2160.00
2019-05-23T06:07:44.256Z,2221.88
2019-05-23T06:08:44.238Z,2086.88
2019-05-23T06:09:44.225Z,1861.88
2019-05-23T06:10:44.215Z,1485.00
2019-05-23T06:11:44.203Z,1321.88
2019-05-23T06:12:44.194Z,1231.88
2019-05-23T06:13:44.190Z,1170.00
2019-05-23T06:14:46.503Z,1091.25
2019-05-23T06:15:44.161Z,1029.38
2019-05-23T06:16:44.153Z,978.75
2019-05-23T06:17:44.138Z,950.62
2019-05-23T06:18:44.159Z,950.62
2019-05-23T06:19:44.156Z,945.00
2019-05-23T06:20:44.108Z,939.38
2019-05-23T06:21:44.096Z,933.75
2019-05-23T06:22:44.099Z,939.38
2019-05-23T06:23:44.081Z,945.00
2019-05-23T06:24:50.357Z,950.62
2019-05-23T06:25:45.063Z,956.25
2019-05-23T06:26:44.041Z,961.88
2019-05-23T06:27:44.032Z,961.88
2019-05-23T06:28:44.020Z,961.88
2019-05-23T06:29:44.012Z,984.38
2019-05-23T06:30:43.998Z,1012.50
2019-05-23T06:31:44.010Z,1029.38
2019-05-23T06:32:43.983Z,1091.25
2019-05-23T06:33:43.967Z,1175.62
2019-05-23T06:34:43.957Z,1215.00
2019-05-23T06:35:43.970Z,1203.75
2019-05-23T06:36:43.934Z,1198.12
2019-05-23T06:37:43.936Z,1366.88
2019-05-23T06:38:43.914Z,1383.75
2019-05-23T06:39:44.015Z,1417.50
2019-05-23T06:40:43.894Z,1580.62
2019-05-23T06:41:43.881Z,1501.88
2019-05-23T06:42:44.074Z,1456.88
2019-05-23T06:43:43.878Z,1462.50
2019-05-23T06:44:43.852Z,1535.62
2019-05-23T06:45:43.841Z,1563.75
2019-05-23T06:46:43.828Z,1597.50
2019-05-23T06:47:43.819Z,1676.25
2019-05-23T06:48:45.828Z,1726.88
2019-05-23T06:49:43.806Z,1755.00
2019-05-23T06:50:43.786Z,1687.50
2019-05-23T06:51:43.777Z,1805.62
2019-05-23T06:52:43.773Z,1850.62
2019-05-23T06:53:43.760Z,1912.50
2019-05-23T06:54:43.745Z,2120.62
2019-05-23T06:55:43.744Z,2238.75
2019-05-23T06:56:43.734Z,2126.25
2019-05-23T06:57:43.713Z,1940.62
2019-05-23T06:58:43.701Z,1800.00
2019-05-23T06:59:43.690Z,1743.75
2019-05-23T07:00:43.685Z,1738.12
2019-05-23T07:01:43.690Z,1800.00
2019-05-23T07:02:43.660Z,2075.62
2019-05-23T07:03:44.143Z,2126.25
2019-05-23T07:04:43.637Z,1957.50
2019-05-23T07:05:43.628Z,2070.00
2019-05-23T07:06:43.616Z,2053.12
2019-05-23T07:07:43.674Z,1957.50
2019-05-23T07:08:43.596Z,1991.25
2019-05-23T07:09:43.583Z,2233.12
2019-05-23T07:10:44.633Z,2233.12
2019-05-23T07:11:43.573Z,2086.88
2019-05-23T07:12:43.552Z,2098.12
2019-05-23T07:13:43.554Z,2064.38
2019-05-23T07:14:43.533Z,2002.50
2019-05-23T07:15:43.522Z,2075.62
2019-05-23T07:16:43.519Z,2250.00
2019-05-23T07:17:43.506Z,2092.50
2019-05-23T07:18:43.691Z,1957.50
2019-05-23T07:19:43.492Z,2019.38
2019-05-23T07:20:43.494Z,2098.12
2019-05-23T07:21:43.459Z,2176.88
2019-05-23T07:22:43.448Z,2362.50
2019-05-23T07:23:43.440Z,2278.12
2019-05-23T07:24:57.393Z,1940.62
2019-05-23T07:25:44.464Z,1968.75
2019-05-23T07:26:43.408Z,2131.88
2019-05-23T07:27:43.404Z,2216.25
2019-05-23T07:28:43.387Z,2109.38
2019-05-23T07:29:43.374Z,2148.75
2019-05-23T07:30:43.425Z,2131.88
2019-05-23T07:31:43.363Z,1980.00
2019-05-23T07:32:43.343Z,2182.50
2019-05-23T07:34:00.365Z,2334.38
2019-05-23T07:34:44.321Z,2137.50
2019-05-23T07:35:43.310Z,2295.00
2019-05-23T07:36:43.342Z,2649.38
2019-05-23T07:37:43.306Z,2480.62
2019-05-23T07:38:43.279Z,2458.12
2019-05-23T07:39:43.268Z,2413.12
2019-05-23T07:40:43.336Z,2356.88
2019-05-23T07:41:43.248Z,2379.38
2019-05-23T07:42:43.236Z,2221.88
2019-05-23T07:43:43.249Z,2176.88
2019-05-23T07:44:48.389Z,2334.38
2019-05-23T07:45:44.205Z,2171.25
2019-05-23T07:46:43.194Z,2030.62
2019-05-23T07:47:43.186Z,1946.25
2019-05-23T07:48:43.176Z,2019.38
2019-05-23T07:49:43.186Z,2086.88
2019-05-23T07:50:43.168Z,2300.62
2019-05-23T07:51:43.144Z,2401.88
2019-05-23T07:52:43.166Z,2604.38
2019-05-23T07:53:43.994Z,3003.75
2019-05-23T07:54:43.113Z,2981.25
2019-05-23T07:55:43.115Z,2941.88
2019-05-23T07:56:43.101Z,2891.25
2019-05-23T07:57:43.082Z,2728.12
2019-05-23T07:58:43.072Z,2739.38
2019-05-23T07:59:43.062Z,3043.12
2019-05-23T08:00:43.053Z,2756.25
2019-05-23T08:01:43.052Z,2536.88
2019-05-23T08:02:43.032Z,2733.75
2019-05-23T08:03:43.020Z,2784.38
2019-05-23T08:04:43.012Z,2874.38
2019-05-23T08:05:43.001Z,3015.00
2019-05-23T08:06:42.991Z,2896.88
2019-05-23T08:07:43.072Z,3015.00
2019-05-23T08:08:42.983Z,3076.88
2019-05-23T08:09:42.958Z,3003.75
2019-05-23T08:10:42.950Z,2863.12
2019-05-23T08:11:42.936Z,2812.50
2019-05-23T08:12:42.927Z,2761.88
2019-05-23T08:13:42.945Z,2767.50
2019-05-23T08:14:42.905Z,2970.00
2019-05-23T08:15:42.899Z,3054.38
2019-05-23T08:16:42.930Z,2970.00
2019-05-23T08:17:42.876Z,2840.62
2019-05-23T08:18:42.867Z,2728.12
2019-05-23T08:19:49.735Z,2593.12
2019-05-23T08:20:43.842Z,2379.38
2019-05-23T08:21:42.832Z,2137.50
2019-05-23T08:22:42.825Z,1496.25
2019-05-23T08:23:42.811Z,1018.12
2019-05-23T08:24:42.801Z,866.25
2019-05-23T08:25:42.800Z,781.88
2019-05-23T08:26:42.781Z,725.62
2019-05-23T08:27:42.771Z,686.25
2019-05-23T08:29:00.914Z,646.88
2019-05-23T08:29:43.744Z,630.00
2019-05-23T08:30:42.740Z,596.25
2019-05-23T08:31:42.735Z,573.75
2019-05-23T08:32:42.717Z,551.25
2019-05-23T08:33:42.702Z,540.00
2019-05-23T08:34:43.092Z,545.62
2019-05-23T08:35:42.679Z,545.62
2019-05-23T08:36:42.671Z,534.38
2019-05-23T08:37:42.678Z,534.38
2019-05-23T08:38:42.649Z,528.75
2019-05-23T08:39:42.637Z,523.12
2019-05-23T08:40:42.626Z,511.88
2019-05-23T08:41:42.616Z,511.88
2019-05-23T08:42:42.605Z,495.00
2019-05-23T08:43:42.609Z,483.75
2019-05-23T08:44:42.587Z,483.75
2019-05-23T08:45:42.576Z,483.75
2019-05-23T08:46:42.566Z,478.12
2019-05-23T08:47:42.555Z,489.38
2019-05-23T08:48:42.544Z,472.50
2019-05-23T08:49:42.555Z,472.50
2019-05-23T08:50:42.524Z,466.88
2019-05-23T08:51:42.513Z,461.25
2019-05-23T08:52:42.504Z,438.75
2019-05-23T08:53:42.493Z,444.38
2019-05-23T08:54:42.483Z,444.38
2019-05-23T08:55:42.485Z,444.38
2019-05-23T08:56:42.467Z,438.75
2019-05-23T08:57:42.452Z,444.38
2019-05-23T08:58:42.441Z,444.38
2019-05-23T08:59:42.431Z,421.88
2019-05-23T09:00:42.421Z,427.50
2019-05-23T09:01:42.426Z,427.50
2019-05-23T09:02:42.401Z,427.50
2019-05-23T09:03:42.392Z,421.88
2019-05-23T09:05:02.181Z,421.88
2019-05-23T09:05:43.369Z,421.88
2019-05-23T09:06:42.373Z,421.88
2019-05-23T09:07:42.361Z,421.88
2019-05-23T09:08:42.342Z,421.88
2019-05-23T09:09:42.328Z,427.50
2019-05-23T09:10:42.317Z,427.50
2019-05-23T09:11:42.309Z,433.12
2019-05-23T09:12:42.301Z,433.12
2019-05-23T09:13:42.302Z,438.75
2019-05-23T09:14:42.280Z,438.75
2019-05-23T09:15:42.404Z,438.75
2019-05-23T09:16:42.258Z,444.38
2019-05-23T09:17:52.380Z,438.75
2019-05-23T09:18:43.246Z,427.50
2019-05-23T09:19:42.230Z,438.75
2019-05-23T09:20:42.215Z,433.12
2019-05-23T09:21:42.204Z,421.88
2019-05-23T09:22:42.200Z,399.38
2019-05-23T09:23:42.187Z,393.75
2019-05-23T09:24:42.187Z,399.38
2019-05-23T09:25:42.162Z,421.88
2019-05-23T09:26:42.151Z,444.38
2019-05-23T09:27:42.145Z,450.00
2019-05-23T09:28:42.129Z,450.00
2019-05-23T09:29:42.119Z,405.00
2019-05-23T09:30:42.126Z,433.12
2019-05-23T09:31:42.096Z,455.62
2019-05-23T09:32:42.092Z,444.38
2019-05-23T09:33:42.079Z,455.62
2019-05-23T09:34:42.066Z,466.88
2019-05-23T09:35:42.065Z,466.88
2019-05-23T09:36:42.055Z,455.62
2019-05-23T09:37:42.035Z,461.25
2019-05-23T09:38:42.025Z,455.62
2019-05-23T09:39:42.016Z,450.00
2019-05-23T09:40:42.063Z,444.38
2019-05-23T09:41:42.001Z,438.75
2019-05-23T09:42:41.998Z,438.75
2019-05-23T09:43:41.979Z,433.12
2019-05-23T09:44:41.970Z,433.12
2019-05-23T09:45:41.953Z,444.38
2019-05-23T09:46:41.942Z,438.75
2019-05-23T09:47:41.933Z,438.75
2019-05-23T09:48:41.941Z,438.75
2019-05-23T09:49:41.914Z,444.38
2019-05-23T09:50:41.902Z,444.38
2019-05-23T09:51:41.890Z,450.00
2019-05-23T09:52:41.879Z,455.62
2019-05-23T09:53:47.020Z,461.25
2019-05-23T09:54:42.869Z,455.62
2019-05-23T09:55:41.848Z,444.38
2019-05-23T09:56:41.840Z,438.75
2019-05-23T09:57:41.849Z,444.38
2019-05-23T09:58:41.817Z,433.12
2019-05-23T09:59:41.818Z,444.38
2019-05-23T10:00:41.811Z,483.75
2019-05-23T10:01:41.787Z,343.12
2019-05-23T10:02:41.774Z,427.50
2019-05-23T10:03:41.778Z,450.00
2019-05-23T10:04:41.767Z,444.38
2019-05-23T10:05:44.057Z,450.00
2019-05-23T10:06:41.744Z,466.88
2019-05-23T10:07:41.722Z,478.12
2019-05-23T10:08:41.714Z,489.38
2019-05-23T10:09:41.711Z,495.00
2019-05-23T10:10:41.709Z,489.38
2019-05-23T10:11:41.681Z,489.38
2019-05-23T10:12:41.679Z,506.25
2019-05-23T10:13:41.658Z,528.75
2019-05-23T10:14:41.648Z,545.62
2019-05-23T10:15:41.639Z,556.88
2019-05-23T10:16:41.628Z,556.88
2019-05-23T10:17:41.617Z,540.00
2019-05-23T10:18:41.621Z,551.25
2019-05-23T10:19:41.596Z,568.12
2019-05-23T10:20:41.586Z,590.62
2019-05-23T10:21:41.574Z,613.12
2019-05-23T10:22:41.566Z,618.75
2019-05-23T10:23:41.568Z,630.00
2019-05-23T10:24:41.553Z,652.50
2019-05-23T10:25:41.534Z,691.88
2019-05-23T10:26:41.523Z,742.50
2019-05-23T10:27:41.512Z,860.62
2019-05-23T10:28:41.502Z,1130.62
2019-05-23T10:29:41.491Z,2137.50
2019-05-23T10:30:41.494Z,2913.75
2019-05-23T10:31:41.470Z,3296.25
2019-05-23T10:32:41.479Z,3605.62
2019-05-23T10:33:41.449Z,4207.50
2019-05-23T10:34:41.442Z,4449.38
2019-05-23T10:35:56.881Z,4376.25
2019-05-23T10:36:42.427Z,4230.00
2019-05-23T10:37:41.407Z,3532.50
2019-05-23T10:38:41.396Z,3408.75
2019-05-23T10:39:41.386Z,3830.62
2019-05-23T10:40:41.376Z,3701.25
2019-05-23T10:41:41.366Z,3262.50
2019-05-23T10:42:41.364Z,3684.38
2019-05-23T10:43:41.344Z,3481.88
2019-05-23T10:44:44.759Z,1518.75
2019-05-23T10:45:41.327Z,573.75
2019-05-23T10:46:41.314Z,483.75
2019-05-23T10:47:41.312Z,433.12
2019-05-23T10:48:41.305Z,416.25
2019-05-23T10:49:41.284Z,427.50
2019-05-23T10:50:44.937Z,410.62
2019-05-23T10:51:41.262Z,405.00
2019-05-23T10:52:41.248Z,393.75
2019-05-23T10:53:41.240Z,399.38
2019-05-23T10:54:41.237Z,438.75
2019-05-23T10:55:41.289Z,438.75
2019-05-23T10:56:41.206Z,427.50
2019-05-23T10:57:41.197Z,416.25
2019-05-23T10:58:41.198Z,393.75
2019-05-23T10:59:41.175Z,382.50
2019-05-23T11:00:41.177Z,376.88
2019-05-23T11:01:41.155Z,376.88
2019-05-23T11:02:41.155Z,371.25
2019-05-23T11:03:41.136Z,371.25
2019-05-23T11:04:41.126Z,376.88
2019-05-23T11:05:41.111Z,371.25
2019-05-23T11:06:41.113Z,365.62
2019-05-23T11:07:41.143Z,360.00
2019-05-23T11:08:41.080Z,348.75
2019-05-23T11:09:41.068Z,348.75
2019-05-23T11:10:41.113Z,360.00
2019-05-23T11:11:41.249Z,348.75
2019-05-23T11:12:41.047Z,348.75
2019-05-23T11:13:41.027Z,360.00
2019-05-23T11:14:41.017Z,348.75
2019-05-23T11:15:41.014Z,343.12
2019-05-23T11:16:40.992Z,337.50
2019-05-23T11:17:40.997Z,343.12
2019-05-23T11:18:41.067Z,343.12
2019-05-23T11:19:40.969Z,343.12
2019-05-23T11:20:40.949Z,348.75
2019-05-23T11:21:40.941Z,348.75
2019-05-23T11:22:40.928Z,354.38
2019-05-23T11:23:40.919Z,348.75
2019-05-23T11:24:40.924Z,354.38
2019-05-23T11:25:40.897Z,337.50
2019-05-23T11:26:40.889Z,331.88
2019-05-23T11:27:40.891Z,326.25
2019-05-23T11:28:40.864Z,320.62
2019-05-23T11:29:40.858Z,326.25
2019-05-23T11:30:40.854Z,326.25
2019-05-23T11:31:40.837Z,326.25
2019-05-23T11:32:40.885Z,320.62
2019-05-23T11:33:40.814Z,315.00
2019-05-23T11:34:40.804Z,315.00
2019-05-23T11:35:40.795Z,315.00
2019-05-23T11:36:40.791Z,315.00
2019-05-23T11:37:42.022Z,315.00
2019-05-23T11:38:40.819Z,315.00
2019-05-23T11:39:48.876Z,309.38
2019-05-23T11:40:41.738Z,298.12
2019-05-23T11:41:40.728Z,286.88
2019-05-23T11:42:40.737Z,281.25
2019-05-23T11:43:40.707Z,281.25
2019-05-23T11:44:40.736Z,303.75
2019-05-23T11:45:45.900Z,309.38
2019-05-23T11:46:41.674Z,315.00
2019-05-23T11:47:40.665Z,309.38
2019-05-23T11:48:40.666Z,303.75
2019-05-23T11:49:40.675Z,309.38
2019-05-23T11:50:40.633Z,315.00
2019-05-23T11:51:40.626Z,315.00
2019-05-23T11:52:40.613Z,315.00
2019-05-23T11:53:40.608Z,309.38
2019-05-23T11:54:40.604Z,303.75
2019-05-23T11:55:40.592Z,309.38
2019-05-23T11:56:40.571Z,309.38
2019-05-23T11:57:40.561Z,309.38
2019-05-23T11:58:40.551Z,315.00
2019-05-23T11:59:40.541Z,337.50
2019-05-23T12:00:40.749Z,331.88
2019-05-23T12:01:40.520Z,320.62
2019-05-23T12:02:40.507Z,315.00
2019-05-23T12:03:40.495Z,298.12
2019-05-23T12:04:40.488Z,309.38
2019-05-23T12:05:40.484Z,309.38
2019-05-23T12:06:54.318Z,281.25
2019-05-23T12:07:41.456Z,286.88
2019-05-23T12:08:40.444Z,286.88
2019-05-23T12:09:40.435Z,281.25
2019-05-23T12:10:40.427Z,281.25
2019-05-23T12:11:42.587Z,286.88
2019-05-23T12:12:40.411Z,298.12
2019-05-23T12:13:40.391Z,303.75
2019-05-23T12:14:40.383Z,303.75
2019-05-23T12:15:40.372Z,292.50
2019-05-23T12:16:40.360Z,281.25
2019-05-23T12:17:40.362Z,275.62
2019-05-23T12:18:40.354Z,286.88
2019-05-23T12:19:40.330Z,292.50
2019-05-23T12:20:40.315Z,298.12
2019-05-23T12:21:40.329Z,303.75
2019-05-23T12:22:40.634Z,320.62
2019-05-23T12:23:40.285Z,337.50
2019-05-23T12:24:40.293Z,331.88
2019-05-23T12:25:40.273Z,331.88
2019-05-23T12:26:40.252Z,331.88
2019-05-23T12:27:40.245Z,331.88
2019-05-23T12:28:40.232Z,337.50
2019-05-23T12:29:40.314Z,348.75
2019-05-23T12:30:40.224Z,360.00
2019-05-23T12:31:40.200Z,360.00
2019-05-23T12:32:40.202Z,365.62
2019-05-23T12:33:40.189Z,365.62
2019-05-23T12:34:40.168Z,365.62
2019-05-23T12:35:40.157Z,354.38
2019-05-23T12:36:40.167Z,348.75
2019-05-23T12:37:40.141Z,337.50